Time;durP1;ratioP1;P1;durP2;ratioP2;P2;SDS_P1;SDS_P2;PMS_P1;PMS_P2;Temp;Humidity;BMP_temperature;BMP_pressure;BME280_temperature;BME280_humidity;BME280_pressure;Samples;Min_cycle;Max_cycle;Signal;HPM_P1;HPM_P2
2021/03/04 00:01:26;;;;;;;4.68;2.88;;;23.50;27.90;;;;;;5069196;28;20575;-50
2021/03/04 00:03:52;;;;;;;4.78;2.78;;;23.50;27.90;;;;;;5069362;28;20681;-49
2021/03/04 00:06:18;;;;;;;2.30;2.10;;;23.50;27.90;;;;;;5071515;28;20220;-49
2021/03/04 00:08:44;;;;;;;3.87;2.53;;;23.50;28.00;;;;;;5073975;28;20204;-49
2021/03/04 00:11:10;;;;;;;3.57;2.50;;;23.50;28.00;;;;;;5073187;28;20201;-47
2021/03/04 00:13:36;;;;;;;3.67;2.70;;;23.50;28.20;;;;;;5074563;28;20209;-46
2021/03/04 00:16:02;;;;;;;3.97;2.47;;;23.50;28.10;;;;;;5070114;28;20205;-49
2021/03/04 00:18:28;;;;;;;4.17;2.40;;;23.50;28.10;;;;;;5073033;28;20573;-48
2021/03/04 00:20:54;;;;;;;3.40;2.20;;;23.50;28.00;;;;;;5073183;28;20697;-48
2021/03/04 00:23:20;;;;;;;3.30;2.42;;;23.50;28.10;;;;;;5072925;28;20788;-53
2021/03/04 00:25:46;;;;;;;3.53;2.40;;;23.50;28.10;;;;;;5068399;28;20225;-50
2021/03/04 00:28:11;;;;;;;4.27;2.20;;;23.50;28.10;;;;;;5058274;28;20250;-50
2021/03/04 00:30:37;;;;;;;5.20;2.40;;;23.50;28.10;;;;;;5070356;28;20271;-51
2021/03/04 00:33:03;;;;;;;3.87;3.13;;;23.50;28.20;;;;;;5071302;28;20216;-50
2021/03/04 00:35:29;;;;;;;4.47;2.40;;;23.50;28.20;;;;;;5071881;28;20212;-52
2021/03/04 00:37:55;;;;;;;3.70;2.10;;;23.50;28.20;;;;;;5074203;28;20201;-53
2021/03/04 00:40:21;;;;;;;3.50;2.10;;;23.50;28.30;;;;;;5073115;28;20229;-50
2021/03/04 00:42:47;;;;;;;4.70;2.50;;;23.50;28.30;;;;;;5072265;28;20595;-51
2021/03/04 00:45:13;;;;;;;3.35;2.45;;;23.50;28.40;;;;;;5069750;28;20677;-51
2021/03/04 00:47:39;;;;;;;2.70;2.38;;;23.50;28.30;;;;;;5073741;28;20212;-51
2021/03/04 00:50:05;;;;;;;3.00;2.07;;;23.50;28.40;;;;;;5071982;28;20224;-50
2021/03/04 00:52:31;;;;;;;2.58;2.30;;;23.50;28.40;;;;;;5073183;28;20295;-51
2021/03/04 00:54:56;;;;;;;2.43;2.23;;;23.40;28.30;;;;;;5073484;28;20204;-49
2021/03/04 00:57:22;;;;;;;2.47;2.20;;;23.40;28.30;;;;;;5070912;28;20209;-50
2021/03/04 00:59:48;;;;;;;3.13;2.13;;;23.50;28.40;;;;;;5073382;28;20219;-51
2021/03/04 01:02:14;;;;;;;2.63;2.07;;;23.40;28.30;;;;;;5072915;28;20258;-48
2021/03/04 01:04:40;;;;;;;2.00;1.90;;;23.40;28.30;;;;;;5067926;28;20625;-50
2021/03/04 01:07:06;;;;;;;3.67;2.20;;;23.50;28.90;;;;;;5067653;28;20657;-50
2021/03/04 01:09:32;;;;;;;3.13;2.10;;;23.40;28.30;;;;;;5073379;28;20277;-48
2021/03/04 01:11:58;;;;;;;2.93;2.00;;;23.40;28.30;;;;;;5067821;28;20206;-50
2021/03/04 01:14:24;;;;;;;2.83;2.40;;;23.40;28.30;;;;;;5071783;28;20201;-48
2021/03/04 01:16:50;;;;;;;3.63;2.33;;;23.40;28.30;;;;;;5071659;28;20205;-47
2021/03/04 01:19:16;;;;;;;3.73;2.53;;;23.40;28.30;;;;;;5072271;28;20265;-48
2021/03/04 01:21:41;;;;;;;2.97;2.20;;;23.40;28.30;;;;;;5072182;28;20228;-50
2021/03/04 01:24:07;;;;;;;3.63;2.20;;;23.40;28.30;;;;;;5072832;28;20578;-51
2021/03/04 01:26:33;;;;;;;2.57;2.07;;;23.40;28.30;;;;;;5071937;28;20208;-51
2021/03/04 01:28:59;;;;;;;4.30;2.23;;;23.40;28.30;;;;;;5071714;28;20220;-50
2021/03/04 01:31:25;;;;;;;3.17;2.30;;;23.40;28.30;;;;;;5072323;28;20213;-51
2021/03/04 01:33:51;;;;;;;3.30;2.50;;;23.40;28.30;;;;;;5072801;28;20220;-50
2021/03/04 01:36:17;;;;;;;2.83;2.10;;;23.40;28.30;;;;;;5071350;28;20262;-50
2021/03/04 01:38:43;;;;;;;2.63;2.17;;;23.40;28.30;;;;;;5072677;28;20217;-51
2021/03/04 01:41:09;;;;;;;2.80;2.00;;;23.40;28.30;;;;;;5072438;28;20599;-48
2021/03/04 01:43:35;;;;;;;3.42;2.20;;;23.40;28.30;;;;;;5072393;28;20696;-51
2021/03/04 01:46:01;;;;;;;3.23;2.53;;;23.40;28.30;;;;;;5069600;28;20200;-51
2021/03/04 01:48:26;;;;;;;3.17;2.22;;;23.40;28.30;;;;;;5072575;28;20193;-54
2021/03/04 01:50:52;;;;;;;2.47;2.27;;;23.40;28.30;;;;;;5071962;28;20204;-54
2021/03/04 01:53:18;;;;;;;2.83;2.20;;;23.40;28.30;;;;;;5072978;28;20203;-49
2021/03/04 01:55:44;;;;;;;2.42;2.22;;;23.40;28.30;;;;;;5071095;28;20193;-50
2021/03/04 01:58:10;;;;;;;3.05;2.33;;;23.40;28.30;;;;;;5072738;28;20197;-47
2021/03/04 02:00:36;;;;;;;2.10;1.90;;;23.40;28.30;;;;;;5070615;28;20606;-52
2021/03/04 02:03:02;;;;;;;2.77;1.97;;;23.40;28.30;;;;;;5056338;28;20228;-50
2021/03/04 02:05:28;;;;;;;3.47;2.05;;;23.40;28.30;;;;;;5070998;28;20208;-53
2021/03/04 02:07:54;;;;;;;3.30;1.90;;;23.40;28.30;;;;;;5069118;28;20205;-49
2021/03/04 02:10:20;;;;;;;2.63;2.00;;;23.40;28.30;;;;;;5071962;28;20228;-53
2021/03/04 02:12:46;;;;;;;4.97;2.60;;;23.40;28.30;;;;;;5071386;28;20207;-52
2021/03/04 02:15:11;;;;;;;2.35;2.05;;;23.40;28.30;;;;;;5071019;28;20315;-52
2021/03/04 02:17:37;;;;;;;4.00;2.45;;;23.40;28.30;;;;;;5072094;28;20193;-52
2021/03/04 02:20:03;;;;;;;4.30;2.17;;;23.40;28.30;;;;;;5070758;28;20221;-52
2021/03/04 02:22:29;;;;;;;3.47;2.17;;;23.40;28.30;;;;;;5072371;28;20283;-51
2021/03/04 02:24:55;;;;;;;3.45;2.55;;;23.40;28.30;;;;;;5071435;28;20560;-54
2021/03/04 02:27:21;;;;;;;3.67;2.10;;;23.40;28.30;;;;;;5069286;28;20198;-54
2021/03/04 02:29:47;;;;;;;2.58;2.38;;;23.40;28.30;;;;;;5071325;28;20228;-54
2021/03/04 02:32:13;;;;;;;2.93;2.20;;;23.40;28.40;;;;;;5071562;28;20204;-53
2021/03/04 02:34:39;;;;;;;2.30;2.00;;;23.40;28.30;;;;;;5069416;28;20201;-54
2021/03/04 02:37:05;;;;;;;3.13;2.10;;;23.40;28.30;;;;;;5071467;28;20197;-54
2021/03/04 02:39:31;;;;;;;2.00;1.80;;;23.40;28.30;;;;;;5070656;28;20228;-49
2021/03/04 02:41:57;;;;;;;2.53;2.28;;;23.40;28.30;;;;;;5071282;28;20654;-52
2021/03/04 02:44:23;;;;;;;3.65;2.22;;;23.40;28.30;;;;;;5068992;28;20235;-47
2021/03/04 02:46:49;;;;;;;3.08;2.13;;;23.40;28.30;;;;;;5069029;28;20261;-47
2021/03/04 02:49:15;;;;;;;2.30;2.10;;;23.40;28.30;;;;;;5070639;28;20224;-49
2021/03/04 02:51:41;;;;;;;2.65;1.90;;;23.40;28.30;;;;;;5071400;28;20208;-49
2021/03/04 02:54:07;;;;;;;2.30;1.90;;;23.40;28.30;;;;;;5070266;28;20204;-52
2021/03/04 02:56:33;;;;;;;3.63;2.20;;;23.40;28.30;;;;;;5069618;28;20204;-47
2021/03/04 02:59:01;;;;;;;2.97;2.20;;;23.40;28.30;;;;;;5061478;28;20592;-50
2021/03/04 03:01:27;;;;;;;1.90;1.80;;;23.40;28.30;;;;;;5070375;28;20207;-49
2021/03/04 03:03:53;;;;;;;2.40;2.20;;;23.40;28.30;;;;;;5071339;28;20584;-48
2021/03/04 03:06:19;;;;;;;3.10;2.30;;;23.40;28.30;;;;;;5068739;28;20216;-49
2021/03/04 03:08:44;;;;;;;2.87;2.00;;;23.40;28.30;;;;;;5071315;28;20699;-51
2021/03/04 03:11:10;;;;;;;2.87;2.20;;;23.40;28.30;;;;;;5070850;28;20205;-52
2021/03/04 03:13:36;;;;;;;3.40;2.13;;;23.40;28.30;;;;;;5070577;28;20204;-51
2021/03/04 03:16:02;;;;;;;2.15;1.77;;;23.40;28.30;;;;;;5070262;28;20254;-49
2021/03/04 03:18:28;;;;;;;2.10;1.90;;;23.40;28.30;;;;;;5069458;28;20233;-48
2021/03/04 03:20:54;;;;;;;2.10;1.90;;;23.40;28.30;;;;;;5071909;28;20205;-52
2021/03/04 03:23:20;;;;;;;2.58;2.17;;;23.50;28.40;;;;;;5064389;28;20244;-51
2021/03/04 03:25:46;;;;;;;2.50;2.23;;;23.40;28.30;;;;;;5060354;28;20197;-51
2021/03/04 03:28:12;;;;;;;2.25;1.85;;;23.40;28.30;;;;;;5068894;28;20568;-49
2021/03/04 03:30:38;;;;;;;3.03;2.03;;;23.50;28.40;;;;;;5071300;28;20204;-47
2021/03/04 03:33:04;;;;;;;2.77;1.90;;;23.50;28.40;;;;;;5058264;28;20287;-49
2021/03/04 03:35:30;;;;;;;2.93;2.10;;;23.40;28.30;;;;;;5069325;28;20714;-51
2021/03/04 03:37:56;;;;;;;3.00;2.13;;;23.40;28.30;;;;;;5066088;28;20211;-52
2021/03/04 03:40:22;;;;;;;2.23;2.03;;;23.40;28.30;;;;;;5072621;28;20204;-50
2021/03/04 03:42:48;;;;;;;2.30;2.10;;;23.40;28.30;;;;;;5074382;28;20227;-50
2021/03/04 03:45:14;;;;;;;2.20;1.80;;;23.40;28.30;;;;;;5074157;28;20204;-53
2021/03/04 03:47:40;;;;;;;3.67;2.07;;;23.40;28.30;;;;;;5064628;28;20207;-52
2021/03/04 03:50:06;;;;;;;3.67;2.00;;;23.40;28.30;;;;;;5074926;28;20200;-49
2021/03/04 03:52:32;;;;;;;3.80;2.20;;;23.50;28.40;;;;;;5073788;28;20208;-53
2021/03/04 03:54:57;;;;;;;3.77;1.83;;;23.40;28.30;;;;;;5074422;28;20698;-49
2021/03/04 03:57:23;;;;;;;3.17;2.10;;;23.50;28.40;;;;;;5073883;28;20726;-53
2021/03/04 03:59:49;;;;;;;3.23;2.27;;;23.50;28.40;;;;;;5060015;28;20262;-52
2021/03/04 04:02:15;;;;;;;2.33;2.10;;;23.40;28.80;;;;;;5073823;28;20208;-52
2021/03/04 04:04:41;;;;;;;2.63;1.90;;;23.40;28.30;;;;;;5073558;28;20205;-50
2021/03/04 04:07:07;;;;;;;3.00;2.10;;;23.40;28.30;;;;;;5071692;28;20203;-50
2021/03/04 04:09:33;;;;;;;4.70;2.00;;;23.40;28.30;;;;;;5074217;28;20240;-55
2021/03/04 04:11:59;;;;;;;2.63;2.10;;;23.40;28.30;;;;;;5073162;28;20641;-49
2021/03/04 04:14:25;;;;;;;3.13;1.97;;;23.50;28.40;;;;;;5072880;28;20212;-50
2021/03/04 04:16:51;;;;;;;3.77;2.50;;;23.40;28.30;;;;;;5069813;28;20201;-53
2021/03/04 04:19:16;;;;;;;2.53;2.00;;;23.40;28.30;;;;;;5074557;28;20236;-52
2021/03/04 04:21:42;;;;;;;2.83;2.17;;;23.40;28.30;;;;;;5073529;28;20197;-52
2021/03/04 04:24:08;;;;;;;2.77;2.10;;;23.40;28.30;;;;;;5068927;28;20228;-51
2021/03/04 04:26:34;;;;;;;2.17;1.77;;;23.40;28.30;;;;;;5067528;28;20193;-53
2021/03/04 04:29:00;;;;;;;3.93;2.23;;;23.40;28.30;;;;;;5073231;28;20595;-51
2021/03/04 04:31:26;;;;;;;3.97;2.30;;;23.40;28.30;;;;;;5073244;28;20684;-52
2021/03/04 04:33:52;;;;;;;2.63;2.10;;;23.40;28.30;;;;;;5067393;28;20213;-52
2021/03/04 04:36:18;;;;;;;2.38;2.00;;;23.40;28.30;;;;;;5073445;28;20201;-55
2021/03/04 04:38:44;;;;;;;2.80;2.17;;;23.40;28.30;;;;;;5069554;28;20221;-54
2021/03/04 04:41:10;;;;;;;2.27;1.90;;;23.40;28.30;;;;;;5073456;28;20192;-50
2021/03/04 04:43:36;;;;;;;4.53;2.53;;;23.40;28.30;;;;;;5072994;28;20238;-50
2021/03/04 04:46:01;;;;;;;2.25;2.05;;;23.40;28.30;;;;;;5070745;28;20231;-49
2021/03/04 04:48:27;;;;;;;3.10;1.83;;;23.40;28.30;;;;;;5057807;28;20690;-51
2021/03/04 04:50:53;;;;;;;3.23;2.17;;;23.40;28.30;;;;;;5072829;28;20681;-49
2021/03/04 04:53:19;;;;;;;2.37;2.07;;;23.40;28.30;;;;;;5072700;28;20230;-49
2021/03/04 04:55:45;;;;;;;3.20;2.10;;;23.40;28.30;;;;;;5072680;28;20224;-48
2021/03/04 04:58:11;;;;;;;4.53;2.10;;;23.40;28.30;;;;;;5073842;28;20213;-49
2021/03/04 05:00:37;;;;;;;2.10;1.90;;;23.40;28.30;;;;;;5072082;28;20209;-50
2021/03/04 05:03:03;;;;;;;2.50;2.13;;;23.40;28.30;;;;;;5073052;28;20261;-51
2021/03/04 05:05:29;;;;;;;2.93;1.83;;;23.40;28.30;;;;;;5072418;28;20591;-51
2021/03/04 05:07:55;;;;;;;3.03;2.10;;;23.40;28.30;;;;;;5072704;28;20217;-49
2021/03/04 05:10:21;;;;;;;2.30;1.90;;;23.40;28.30;;;;;;5072849;28;20606;-51
2021/03/04 05:12:47;;;;;;;2.33;1.98;;;23.40;28.30;;;;;;5068869;28;20678;-52
2021/03/04 05:15:12;;;;;;;2.20;1.75;;;23.40;28.30;;;;;;5069810;28;20640;-48
2021/03/04 05:17:38;;;;;;;3.27;1.90;;;23.40;28.30;;;;;;5072766;28;20228;-50
2021/03/04 05:20:04;;;;;;;2.00;1.90;;;23.40;28.30;;;;;;5054533;28;20216;-46
2021/03/04 05:22:30;;;;;;;2.27;2.00;;;23.40;28.30;;;;;;5064868;28;20201;-47
2021/03/04 05:24:56;;;;;;;3.87;1.70;;;23.40;28.30;;;;;;5055126;28;20219;-50
2021/03/04 05:27:22;;;;;;;3.47;2.37;;;23.40;28.30;;;;;;5072512;28;20232;-53
2021/03/04 05:29:48;;;;;;;1.98;1.80;;;23.40;28.30;;;;;;5071577;28;20202;-52
2021/03/04 05:32:16;;;;;;;2.53;1.92;;;23.40;28.30;;;;;;5053712;28;20206;-53
2021/03/04 05:34:42;;;;;;;2.60;1.87;;;23.40;28.30;;;;;;5055690;28;20217;-51
2021/03/04 05:37:08;;;;;;;2.17;1.97;;;23.40;28.30;;;;;;5072639;28;20271;-49
2021/03/04 05:39:34;;;;;;;2.67;1.85;;;23.40;28.30;;;;;;5072696;28;20716;-51
2021/03/04 05:41:59;;;;;;;2.33;2.08;;;23.40;28.30;;;;;;5072028;28;20266;-51
2021/03/04 05:44:25;;;;;;;2.93;1.97;;;23.40;28.30;;;;;;5072068;28;20581;-48
2021/03/04 05:46:51;;;;;;;2.00;1.77;;;23.50;28.40;;;;;;5072751;28;20679;-51
2021/03/04 05:49:17;;;;;;;2.28;1.70;;;23.40;28.30;;;;;;5071032;28;20225;-50
2021/03/04 05:51:43;;;;;;;2.42;1.70;;;23.40;28.30;;;;;;5072538;28;20205;-50
2021/03/04 05:54:09;;;;;;;3.13;1.93;;;23.40;28.30;;;;;;5068977;28;20203;-52
2021/03/04 05:56:35;;;;;;;2.08;1.88;;;23.40;28.30;;;;;;5071640;28;20205;-51
2021/03/04 05:59:01;;;;;;;2.47;1.97;;;23.40;28.30;;;;;;5071623;28;20216;-48
2021/03/04 06:01:27;;;;;;;2.67;1.98;;;23.40;28.30;;;;;;5067097;28;20201;-49
2021/03/04 06:03:53;;;;;;;3.67;1.90;;;23.40;28.30;;;;;;5067263;28;20237;-50
2021/03/04 06:06:19;;;;;;;1.95;1.70;;;23.40;28.30;;;;;;5071422;28;20212;-47
2021/03/04 06:08:45;;;;;;;2.53;1.92;;;23.40;28.30;;;;;;5064750;28;20221;-48
2021/03/04 06:11:10;;;;;;;3.07;1.97;;;23.40;28.30;;;;;;5071798;28;20193;-51
2021/03/04 06:13:36;;;;;;;3.15;2.33;;;23.40;28.30;;;;;;5068990;28;20204;-47
2021/03/04 06:16:03;;;;;;;3.23;1.93;;;23.40;28.30;;;;;;5060850;28;20225;-50
2021/03/04 06:18:29;;;;;;;2.33;1.73;;;23.40;28.30;;;;;;5064376;28;20225;-50
2021/03/04 06:20:54;;;;;;;2.57;2.10;;;23.40;28.30;;;;;;5069962;28;20221;-48
2021/03/04 06:23:20;;;;;;;2.05;1.73;;;23.40;28.30;;;;;;5069883;28;20223;-49
2021/03/04 06:25:46;;;;;;;2.70;1.88;;;23.40;28.30;;;;;;5070648;28;20561;-50
2021/03/04 06:28:12;;;;;;;2.75;1.95;;;23.40;28.80;;;;;;5064348;28;20229;-49
2021/03/04 06:30:38;;;;;;;3.53;2.27;;;23.40;28.30;;;;;;5067275;28;20208;-52
2021/03/04 06:33:04;;;;;;;2.10;1.60;;;23.40;28.30;;;;;;5070054;28;20200;-49
2021/03/04 06:35:30;;;;;;;3.60;1.87;;;23.40;28.30;;;;;;5071173;28;20205;-51
2021/03/04 06:37:56;;;;;;;4.70;2.38;;;23.40;28.90;;;;;;5070675;28;20225;-52
2021/03/04 06:40:22;;;;;;;4.40;2.43;;;23.40;29.30;;;;;;5068845;28;20239;-46
2021/03/04 06:42:48;;;;;;;4.57;2.60;;;23.40;29.50;;;;;;5063143;28;20269;-51
2021/03/04 06:45:14;;;;;;;4.57;2.20;;;23.40;29.30;;;;;;5070419;28;20209;-49
2021/03/04 06:47:39;;;;;;;5.97;2.28;;;23.40;28.90;;;;;;5069417;28;20240;-52
2021/03/04 06:50:05;;;;;;;10.13;3.00;;;23.40;28.30;;;;;;5068720;28;20223;-48
2021/03/04 06:52:31;;;;;;;7.07;2.93;;;23.30;28.20;;;;;;5066171;28;20205;-50
2021/03/04 06:54:57;;;;;;;15.23;3.93;;;23.20;27.70;;;;;;5068172;28;20668;-50
2021/03/04 06:57:23;;;;;;;7.60;3.72;;;22.90;24.10;;;;;;5068172;28;20641;-50
2021/03/04 06:59:49;;;;;;;4.60;3.57;;;22.10;23.60;;;;;;5069656;28;20696;-48
2021/03/04 07:02:15;;;;;;;6.70;3.50;;;21.20;21.60;;;;;;5068526;28;20245;-49
2021/03/04 07:04:41;;;;;;;6.30;3.73;;;21.40;22.70;;;;;;5069839;28;20268;-49
2021/03/04 07:07:07;;;;;;;3.17;2.40;;;21.80;22.70;;;;;;5071370;28;20629;-52
2021/03/04 07:09:33;;;;;;;3.50;2.30;;;22.20;23.50;;;;;;5070228;28;20636;-51
2021/03/04 07:11:59;;;;;;;2.97;2.50;;;22.50;23.80;;;;;;5069463;28;20631;-49
2021/03/04 07:14:25;;;;;;;4.87;2.60;;;22.70;24.20;;;;;;5060485;28;20688;-49
2021/03/04 07:16:51;;;;;;;2.83;2.10;;;22.80;24.50;;;;;;5064341;28;20226;-53
2021/03/04 07:19:17;;;;;;;2.40;2.20;;;22.90;24.90;;;;;;5069423;28;20265;-54
2021/03/04 07:21:42;;;;;;;2.90;2.10;;;22.90;25.70;;;;;;5069700;28;20200;-48
2021/03/04 07:24:08;;;;;;;5.30;1.90;;;23.00;25.30;;;;;;5069941;28;20229;-49
2021/03/04 07:26:36;;;;;;;3.77;2.23;;;23.10;25.60;;;;;;5067763;28;20232;-53
2021/03/04 07:29:02;;;;;;;4.07;1.97;;;23.00;24.30;;;;;;5070469;28;20208;-53
2021/03/04 07:31:28;;;;;;;1.80;1.50;;;23.10;25.40;;;;;;5070705;28;20220;-51
2021/03/04 07:33:54;;;;;;;3.83;1.90;;;23.10;25.70;;;;;;5069798;28;20212;-53
2021/03/04 07:36:20;;;;;;;3.00;1.87;;;23.10;26.20;;;;;;5067868;28;20224;-53
2021/03/04 07:38:46;;;;;;;2.03;1.83;;;23.20;26.30;;;;;;5071002;28;20205;-53
2021/03/04 07:41:12;;;;;;;2.23;1.70;;;23.30;26.30;;;;;;5069702;28;20208;-51
2021/03/04 07:43:38;;;;;;;2.10;1.43;;;23.20;26.50;;;;;;5061852;28;20247;-46
2021/03/04 07:46:04;;;;;;;8.00;2.17;;;23.40;27.60;;;;;;5063583;28;20232;-52
2021/03/04 07:48:30;;;;;;;11.23;2.43;;;23.30;25.40;;;;;;5069876;28;20208;-51
2021/03/04 07:50:56;;;;;;;5.90;2.30;;;23.20;26.20;;;;;;5057428;28;20212;-47
2021/03/04 07:53:22;;;;;;;2.92;1.90;;;23.10;25.80;;;;;;5069513;28;20196;-57
2021/03/04 07:55:47;;;;;;;2.57;1.60;;;23.30;26.50;;;;;;5068762;28;20221;-56
2021/03/04 07:58:14;;;;;;;5.65;2.05;;;23.30;26.90;;;;;;5069496;28;20339;-54
2021/03/04 08:00:40;;;;;;;5.93;2.20;;;23.40;27.40;;;;;;5069944;28;20255;-51
2021/03/04 08:03:06;;;;;;;6.30;1.93;;;23.30;27.10;;;;;;5052869;28;20666;-48
2021/03/04 08:05:32;;;;;;;9.13;2.20;;;23.30;27.30;;;;;;5058037;28;20216;-53
2021/03/04 08:07:58;;;;;;;8.40;2.07;;;23.30;27.60;;;;;;5065160;28;20197;-50
2021/03/04 08:10:24;;;;;;;5.45;1.73;;;23.40;27.80;;;;;;5067163;28;20205;-42
2021/03/04 08:12:50;;;;;;;3.28;1.80;;;23.40;27.30;;;;;;5068861;28;20257;-49
2021/03/04 08:15:15;;;;;;;2.53;1.50;;;23.40;27.40;;;;;;5066613;28;20312;-42
2021/03/04 08:17:41;;;;;;;6.93;2.05;;;23.30;27.40;;;;;;5068331;28;20197;-46
2021/03/04 08:20:07;;;;;;;4.05;1.40;;;23.30;27.90;;;;;;5062421;28;20206;-44
2021/03/04 08:22:33;;;;;;;4.03;1.57;;;23.40;27.50;;;;;;5065718;28;20205;-41
2021/03/04 08:24:59;;;;;;;2.75;1.75;;;23.30;27.70;;;;;;5070228;28;20213;-49
2021/03/04 08:27:27;;;;;;;2.30;1.30;;;23.30;27.50;;;;;;5064388;28;20209;-42
2021/03/04 08:29:53;;;;;;;2.10;1.58;;;23.20;27.60;;;;;;5069638;28;20256;-43
2021/03/04 08:32:19;;;;;;;2.95;1.20;;;23.30;27.80;;;;;;5073456;28;20545;-46
2021/03/04 08:34:45;;;;;;;2.60;1.42;;;23.20;27.80;;;;;;5069577;28;20677;-45
2021/03/04 08:37:11;;;;;;;5.05;1.45;;;23.20;28.00;;;;;;5071775;28;20201;-43
2021/03/04 08:39:37;;;;;;;3.30;2.00;;;23.20;28.10;;;;;;5061428;28;20233;-46
2021/03/04 08:42:03;;;;;;;2.20;1.83;;;23.20;27.20;;;;;;5051819;28;20197;-45
2021/03/04 08:44:29;;;;;;;2.50;1.60;;;23.20;27.20;;;;;;5051919;28;20236;-45
2021/03/04 08:46:55;;;;;;;2.03;1.40;;;23.20;27.50;;;;;;5046187;28;20222;-42
2021/03/04 08:49:20;;;;;;;1.92;1.35;;;23.30;27.80;;;;;;5048419;28;20204;-48
2021/03/04 08:51:46;;;;;;;4.32;1.83;;;23.30;28.20;;;;;;5052490;28;20201;-41
2021/03/04 08:54:12;;;;;;;2.80;1.70;;;23.30;27.30;;;;;;5052094;28;20280;-41
2021/03/04 08:56:38;;;;;;;10.23;2.00;;;23.40;28.60;;;;;;5052400;28;20222;-42
2021/03/04 08:59:04;;;;;;;2.27;2.00;;;23.40;27.80;;;;;;5049913;28;20645;-45
2021/03/04 09:01:30;;;;;;;2.30;1.50;;;23.40;27.80;;;;;;5051801;28;20213;-43
2021/03/04 09:03:56;;;;;;;4.97;1.70;;;23.40;28.20;;;;;;5034723;28;20226;-44
2021/03/04 09:06:22;;;;;;;1.73;1.63;;;23.50;28.30;;;;;;5052471;28;20292;-47
2021/03/04 09:08:48;;;;;;;4.07;1.70;;;23.40;27.90;;;;;;5050929;28;20568;-44
2021/03/04 09:11:14;;;;;;;3.57;1.57;;;23.40;28.00;;;;;;5051244;28;20233;-42
2021/03/04 09:13:40;;;;;;;2.77;1.50;;;23.40;28.30;;;;;;5053128;28;20647;-44
2021/03/04 09:16:06;;;;;;;2.53;1.80;;;23.40;28.30;;;;;;5051502;28;20233;-43
2021/03/04 09:18:32;;;;;;;2.42;1.73;;;23.30;28.20;;;;;;5051746;28;20209;-47
2021/03/04 09:20:58;;;;;;;2.50;1.60;;;23.30;28.20;;;;;;5048330;28;20209;-49
2021/03/04 09:23:24;;;;;;;2.07;1.53;;;23.30;28.20;;;;;;5042140;28;20233;-49
2021/03/04 09:25:50;;;;;;;2.25;1.48;;;23.40;28.30;;;;;;5049624;28;20240;-50
2021/03/04 09:28:15;;;;;;;3.92;1.98;;;23.30;28.30;;;;;;5045849;28;20552;-42
2021/03/04 09:30:41;;;;;;;5.13;1.80;;;23.30;28.20;;;;;;5050547;28;20681;-44
2021/03/04 09:33:07;;;;;;;3.00;1.55;;;23.30;28.90;;;;;;5050672;28;20212;-45
2021/03/04 09:35:33;;;;;;;3.45;1.60;;;23.40;28.30;;;;;;5050479;28;20221;-44
2021/03/04 09:37:59;;;;;;;2.67;1.40;;;23.40;28.80;;;;;;5045841;28;20201;-44
2021/03/04 09:40:25;;;;;;;3.87;1.60;;;23.40;28.30;;;;;;5050166;28;20202;-49
2021/03/04 09:42:51;;;;;;;1.75;1.63;;;23.40;28.50;;;;;;5038597;28;20194;-47
2021/03/04 09:45:17;;;;;;;2.85;1.63;;;23.50;29.00;;;;;;5050523;28;20230;-47
2021/03/04 09:47:43;;;;;;;3.72;1.45;;;23.50;29.00;;;;;;5051554;28;20220;-45
2021/03/04 09:50:09;;;;;;;2.08;1.50;;;23.50;28.50;;;;;;5051261;28;20198;-48
2021/03/04 09:52:35;;;;;;;2.33;1.23;;;23.50;28.70;;;;;;5045688;28;20193;-42
2021/03/04 09:55:01;;;;;;;2.13;1.80;;;23.50;28.60;;;;;;5046165;28;20221;-47
2021/03/04 09:57:26;;;;;;;3.20;1.70;;;23.50;28.80;;;;;;5049439;28;20209;-49
2021/03/04 09:59:53;;;;;;;3.35;2.10;;;23.50;28.90;;;;;;5045621;28;20272;-50
2021/03/04 10:02:19;;;;;;;2.22;1.55;;;23.50;28.90;;;;;;5045646;28;20202;-44
2021/03/04 10:04:44;;;;;;;1.98;1.75;;;23.50;29.00;;;;;;5036845;28;20241;-41
2021/03/04 10:07:10;;;;;;;3.35;1.48;;;23.40;29.00;;;;;;5041651;28;20193;-45
2021/03/04 10:09:36;;;;;;;4.15;1.45;;;23.40;29.00;;;;;;5042988;28;20244;-45
2021/03/04 10:12:02;;;;;;;1.90;1.50;;;23.40;28.90;;;;;;5051263;28;20643;-41
2021/03/04 10:14:28;;;;;;;2.63;1.50;;;23.40;28.80;;;;;;5050177;28;20216;-48
2021/03/04 10:16:54;;;;;;;3.47;1.73;;;23.50;28.80;;;;;;5046526;28;20201;-41
2021/03/04 10:19:20;;;;;;;4.60;1.92;;;23.50;28.90;;;;;;5051873;28;20249;-50
2021/03/04 10:21:46;;;;;;;1.98;1.45;;;23.50;28.90;;;;;;5047553;28;20259;-44
2021/03/04 10:24:13;;;;;;;2.78;1.80;;;23.50;28.90;;;;;;5050859;28;20229;-45
2021/03/04 10:26:38;;;;;;;3.57;1.53;;;23.50;28.90;;;;;;5049873;28;20249;-47
2021/03/04 10:29:04;;;;;;;3.23;1.50;;;23.40;28.80;;;;;;5050280;28;20701;-41
2021/03/04 10:31:30;;;;;;;3.50;1.93;;;23.50;28.90;;;;;;5050031;28;20210;-41
2021/03/04 10:33:56;;;;;;;1.50;1.40;;;23.50;28.80;;;;;;5035876;28;20216;-41
2021/03/04 10:36:22;;;;;;;2.95;1.67;;;23.50;28.80;;;;;;5050684;28;20229;-47
2021/03/04 10:38:48;;;;;;;1.58;1.48;;;23.50;28.80;;;;;;5050164;28;20210;-45
2021/03/04 10:41:14;;;;;;;1.83;1.30;;;23.50;28.80;;;;;;5050558;28;20209;-48
2021/03/04 10:43:40;;;;;;;2.00;1.50;;;23.40;28.80;;;;;;5051830;28;20625;-50
2021/03/04 10:46:06;;;;;;;1.50;1.40;;;23.50;28.80;;;;;;5036523;28;20222;-43
2021/03/04 10:48:32;;;;;;;1.92;1.20;;;23.50;28.80;;;;;;5040340;28;20316;-47
2021/03/04 10:50:58;;;;;;;1.75;1.40;;;23.50;28.80;;;;;;5050319;28;20212;-43
2021/03/04 10:53:23;;;;;;;1.48;1.38;;;23.50;28.80;;;;;;5046031;28;20206;-51
2021/03/04 10:55:49;;;;;;;1.38;1.27;;;23.50;28.90;;;;;;5041386;28;20225;-46
2021/03/04 10:58:15;;;;;;;2.60;1.83;;;23.50;28.70;;;;;;5051228;28;20239;-43
2021/03/04 11:00:41;;;;;;;1.52;1.40;;;23.50;29.00;;;;;;5046386;28;20220;-46
2021/03/04 11:03:07;;;;;;;1.47;1.37;;;23.50;28.80;;;;;;5050082;28;20222;-42
2021/03/04 11:05:33;;;;;;;4.35;1.55;;;23.50;29.00;;;;;;5050036;28;20222;-43
2021/03/04 11:07:59;;;;;;;3.13;1.80;;;23.50;28.40;;;;;;5044464;28;20201;-45
2021/03/04 11:13:00;;;;;;;4.35;1.40;;;23.70;29.20;;;;;;5381541;22;20228;-48
2021/03/04 11:15:26;;;;;;;2.22;1.50;;;23.80;29.10;;;;;;5060163;28;20485;-48
2021/03/04 11:17:52;;;;;;;2.93;1.53;;;23.70;28.80;;;;;;5067033;28;20660;-53
2021/03/04 11:20:18;;;;;;;3.42;1.48;;;23.70;28.50;;;;;;5062068;28;20205;-49
2021/03/04 11:22:44;;;;;;;1.50;1.40;;;23.60;28.40;;;;;;5070255;28;20229;-49
2021/03/04 11:25:10;;;;;;;2.22;1.73;;;23.60;28.70;;;;;;5070395;28;20209;-54
2021/03/04 11:27:36;;;;;;;3.23;1.60;;;23.80;28.80;;;;;;5058632;28;20208;-47
2021/03/04 11:30:02;;;;;;;2.90;1.50;;;23.70;28.50;;;;;;5062287;28;20197;-49
2021/03/04 11:32:28;;;;;;;1.60;1.33;;;23.70;28.50;;;;;;5069572;28;20228;-52
2021/03/04 11:34:54;;;;;;;4.93;2.97;;;23.60;28.40;;;;;;5069789;28;20220;-46
2021/03/04 11:37:19;;;;;;;6.45;2.38;;;23.60;26.50;;;;;;5070133;28;20250;-45
2021/03/04 11:39:45;;;;;;;4.22;2.20;;;23.50;27.20;;;;;;5069201;28;20197;-44
2021/03/04 11:42:11;;;;;;;1.70;1.60;;;23.60;27.50;;;;;;5070036;28;20239;-53
2021/03/04 11:44:37;;;;;;;1.88;1.73;;;23.60;28.20;;;;;;5070533;28;20596;-50
2021/03/04 11:47:03;;;;;;;2.20;1.70;;;23.60;28.50;;;;;;5041917;28;20621;-46
2021/03/04 11:49:29;;;;;;;1.63;1.50;;;23.70;28.50;;;;;;5068250;28;20201;-50
2021/03/04 11:51:55;;;;;;;2.43;1.50;;;23.60;28.40;;;;;;5064521;28;20222;-50
2021/03/04 11:54:21;;;;;;;4.20;2.20;;;23.60;28.40;;;;;;5065405;28;20197;-51
2021/03/04 11:56:47;;;;;;;2.55;2.03;;;23.70;28.00;;;;;;5063020;28;20198;-51
2021/03/04 11:59:13;;;;;;;4.07;2.13;;;23.50;27.80;;;;;;5060080;28;20210;-56
2021/03/04 12:01:39;;;;;;;1.55;1.45;;;23.60;28.30;;;;;;5066248;28;20216;-48
2021/03/04 12:04:06;;;;;;;1.30;1.20;;;23.50;28.40;;;;;;5069913;28;20235;-49
2021/03/04 12:06:32;;;;;;;2.10;1.60;;;23.60;28.40;;;;;;5072984;28;20664;-45
2021/03/04 12:08:58;;;;;;;2.25;1.40;;;23.60;28.40;;;;;;5074956;28;20208;-48
2021/03/04 12:11:24;;;;;;;2.78;1.63;;;23.60;28.40;;;;;;5072246;28;20227;-49
2021/03/04 12:13:49;;;;;;;1.85;1.55;;;23.70;28.50;;;;;;5069469;28;20217;-49
2021/03/04 12:16:15;;;;;;;1.70;1.42;;;23.70;28.50;;;;;;5067766;28;20201;-50
2021/03/04 12:18:41;;;;;;;2.28;1.45;;;23.60;29.00;;;;;;5072625;28;20209;-52
2021/03/04 12:21:07;;;;;;;2.13;1.80;;;23.60;28.40;;;;;;5072656;28;20278;-48
2021/03/04 12:23:33;;;;;;;1.48;1.27;;;23.60;28.40;;;;;;5070361;28;20270;-50
2021/03/04 12:25:59;;;;;;;1.60;1.50;;;23.60;28.40;;;;;;5070085;28;20201;-47
2021/03/04 12:28:25;;;;;;;2.17;1.60;;;23.60;28.40;;;;;;5073664;28;20205;-47
2021/03/04 12:30:51;;;;;;;1.30;1.20;;;23.60;28.50;;;;;;5065636;28;20655;-56
2021/03/04 12:33:17;;;;;;;1.73;1.63;;;23.60;28.50;;;;;;5070775;28;20835;-50
2021/03/04 12:35:43;;;;;;;1.73;1.50;;;23.60;28.40;;;;;;5066258;28;20208;-47
2021/03/04 12:38:09;;;;;;;3.20;1.80;;;23.60;28.40;;;;;;5071703;28;20201;-49
2021/03/04 12:40:36;;;;;;;5.77;2.40;;;23.60;29.20;;;;;;5067205;28;20205;-48